createdAt,value
2018-06-24T00:02:12.455Z,74.80
2018-06-24T00:04:52.775Z,75.30
2018-06-24T00:07:32.714Z,74.70
2018-06-24T00:10:07.386Z,73.30
2018-06-24T00:12:44.173Z,72.60
2018-06-24T00:15:24.506Z,73.90
2018-06-24T00:18:01.409Z,73.50
2018-06-24T00:20:36.922Z,74.70
2018-06-24T00:23:13.016Z,75.80
2018-06-24T00:25:47.944Z,77.30
2018-06-24T00:28:22.353Z,77.10
2018-06-24T00:30:57.488Z,77.70
2018-06-24T00:33:34.121Z,77.90
2018-06-24T00:36:10.455Z,77.90
2018-06-24T00:38:46.498Z,77.80
2018-06-24T00:41:21.800Z,77.30
2018-06-24T00:43:59.605Z,77.10
2018-06-24T00:46:39.506Z,77.30
2018-06-24T00:49:18.110Z,77.70
2018-06-24T00:51:58.203Z,78.10
2018-06-24T00:54:31.313Z,77.10
2018-06-24T00:57:08.457Z,77.30
2018-06-24T00:59:49.946Z,77.50
2018-06-24T01:02:30.272Z,77.30
2018-06-24T01:05:10.214Z,77.40
2018-06-24T01:07:44.861Z,78.80
2018-06-24T01:10:20.594Z,78.70
2018-06-24T01:12:57.487Z,77.40
2018-06-24T01:15:33.025Z,77.30
2018-06-24T01:18:08.801Z,75.60
2018-06-24T01:20:45.089Z,76.60
2018-06-24T01:23:22.135Z,77.20
2018-06-24T01:25:59.909Z,77.40
2018-06-24T01:28:39.569Z,77.90
2018-06-24T01:31:14.744Z,78.10
2018-06-24T01:33:53.184Z,78.20
2018-06-24T01:36:31.645Z,78.00
2018-06-24T01:39:09.928Z,77.10
2018-06-24T01:44:23.771Z,77.40
2018-06-24T01:46:59.306Z,78.70
2018-06-24T01:49:35.911Z,79.10
2018-06-24T01:52:12.000Z,80.70
2018-06-24T01:54:50.158Z,80.50
2018-06-24T01:57:29.983Z,81.00
2018-06-24T02:00:08.386Z,81.20
2018-06-24T02:02:48.291Z,80.60
2018-06-24T02:05:28.463Z,79.10
2018-06-24T02:08:08.447Z,79.80
2018-06-24T02:10:48.418Z,80.90
2018-06-24T02:13:28.023Z,80.90
2018-06-24T02:16:06.835Z,80.70
2018-06-24T02:18:44.451Z,80.80
2018-06-24T02:21:24.240Z,80.20
2018-06-24T02:24:04.282Z,80.40
2018-06-24T02:26:36.183Z,81.00
2018-06-24T02:29:15.759Z,81.80
2018-06-24T02:31:56.031Z,81.60
2018-06-24T02:34:36.152Z,81.10
2018-06-24T02:37:07.992Z,80.40
2018-06-24T02:39:44.515Z,80.60
2018-06-24T02:42:20.213Z,80.80
2018-06-24T02:44:56.336Z,82.40
2018-06-24T02:47:33.521Z,81.70
2018-06-24T02:50:09.998Z,81.40
2018-06-24T02:52:47.676Z,80.20
2018-06-24T02:55:26.208Z,80.40
2018-06-24T02:58:05.869Z,81.80
2018-06-24T03:00:45.922Z,80.90
2018-06-24T03:03:19.441Z,81.80
2018-06-24T03:05:52.670Z,82.30
2018-06-24T03:08:25.051Z,82.80
2018-06-24T03:11:05.037Z,82.00
2018-06-24T03:13:36.836Z,82.00
2018-06-24T03:16:11.537Z,81.90
2018-06-24T03:18:48.412Z,82.90
2018-06-24T03:21:27.884Z,83.40
2018-06-24T03:24:00.047Z,84.60
2018-06-24T03:26:31.824Z,84.10
2018-06-24T03:29:10.076Z,84.30
2018-06-24T03:31:46.037Z,84.30
2018-06-24T03:34:23.997Z,84.20
2018-06-24T03:37:03.986Z,82.90
2018-06-24T03:39:37.733Z,83.30
2018-06-24T03:42:17.445Z,82.40
2018-06-24T03:44:58.054Z,83.40
2018-06-24T03:47:38.476Z,83.50
2018-06-24T03:50:15.744Z,83.00
2018-06-24T03:52:55.775Z,82.30
2018-06-24T03:55:36.865Z,82.60
2018-06-24T03:58:16.768Z,81.70
2018-06-24T04:00:48.909Z,81.00
2018-06-24T04:03:20.128Z,81.30
2018-06-24T04:06:00.428Z,81.60
2018-06-24T04:08:33.078Z,81.60
2018-06-24T04:11:13.092Z,82.60
2018-06-24T04:13:53.463Z,82.80
2018-06-24T04:16:33.543Z,82.60
2018-06-24T04:19:05.566Z,82.10
2018-06-24T04:21:38.583Z,81.90
2018-06-24T04:24:11.513Z,81.70
2018-06-24T04:26:46.511Z,82.80
2018-06-24T04:29:23.314Z,83.10
2018-06-24T04:31:59.445Z,83.10
2018-06-24T04:34:37.351Z,83.10
2018-06-24T04:37:13.824Z,82.60
2018-06-24T04:39:51.129Z,81.70
2018-06-24T04:42:30.740Z,81.70
2018-06-24T04:45:09.117Z,81.70
2018-06-24T04:50:16.400Z,82.20
2018-06-24T04:52:48.381Z,80.90
2018-06-24T04:55:20.582Z,80.80
2018-06-24T04:57:53.230Z,81.10
2018-06-24T05:00:29.439Z,81.00
2018-06-24T05:03:02.349Z,81.50
2018-06-24T05:05:39.918Z,81.50
2018-06-24T05:08:19.761Z,81.80
2018-06-24T05:11:00.169Z,81.20
2018-06-24T05:13:40.560Z,81.40
2018-06-24T05:16:20.466Z,81.20
2018-06-24T05:19:00.833Z,82.00
2018-06-24T05:21:39.391Z,81.50
2018-06-24T05:24:16.154Z,81.00
2018-06-24T05:26:54.028Z,80.40
2018-06-24T05:29:31.056Z,81.00
2018-06-24T05:32:05.356Z,81.50
2018-06-24T05:34:41.478Z,81.20
2018-06-24T05:37:18.103Z,80.20
2018-06-24T05:39:57.716Z,80.10
2018-06-24T05:42:35.587Z,80.60
2018-06-24T05:45:11.463Z,81.00
2018-06-24T05:47:46.495Z,80.60
2018-06-24T05:50:22.170Z,81.50
2018-06-24T05:53:00.606Z,80.50
2018-06-24T05:55:39.343Z,80.60
2018-06-24T05:58:18.343Z,80.70
2018-06-24T06:00:49.593Z,81.00
2018-06-24T06:03:22.083Z,81.00
2018-06-24T06:05:55.284Z,81.90
2018-06-24T06:08:35.459Z,81.20
2018-06-24T06:11:15.817Z,81.00
2018-06-24T06:13:54.640Z,79.70
2018-06-24T06:16:34.630Z,79.60
2018-06-24T06:19:15.423Z,80.10
2018-06-24T06:21:55.881Z,79.70
2018-06-24T06:24:37.046Z,79.90
2018-06-24T06:27:17.461Z,78.60
2018-06-24T06:29:57.969Z,78.90
2018-06-24T06:32:37.737Z,79.50
2018-06-24T06:35:12.337Z,79.10
2018-06-24T06:37:49.057Z,79.20
2018-06-24T06:40:23.148Z,78.80
2018-06-24T06:42:56.647Z,78.90
2018-06-24T06:45:30.191Z,78.20
2018-06-24T06:48:10.864Z,78.20
2018-06-24T06:50:50.972Z,77.30
2018-06-24T06:53:31.158Z,76.60
2018-06-24T06:56:08.597Z,78.00
2018-06-24T06:58:48.022Z,77.70
2018-06-24T07:01:26.006Z,77.80
2018-06-24T07:03:59.464Z,77.20
2018-06-24T07:06:39.554Z,75.40
2018-06-24T07:09:19.959Z,74.80
2018-06-24T07:12:00.193Z,75.10
2018-06-24T07:14:33.524Z,75.40
2018-06-24T07:17:08.187Z,75.70
2018-06-24T07:19:48.235Z,74.60
2018-06-24T07:22:26.643Z,74.00
2018-06-24T07:25:06.814Z,72.90
2018-06-24T07:27:45.701Z,72.40
2018-06-24T07:30:40.656Z,70.40
2018-06-24T07:33:26.603Z,67.60
2018-06-24T07:36:02.461Z,66.10
2018-06-24T07:38:38.524Z,64.90
2018-06-24T07:41:10.917Z,62.60
2018-06-24T07:43:46.379Z,61.40
2018-06-24T07:46:24.423Z,62.10
2018-06-24T07:49:01.554Z,61.40
2018-06-24T07:51:41.177Z,60.90
2018-06-24T07:54:21.560Z,61.30
2018-06-24T07:56:59.693Z,59.70
2018-06-24T07:59:41.203Z,58.40
2018-06-24T09:25:08.627Z,56.60
2018-06-24T09:27:41.931Z,50.40
2018-06-24T09:30:15.327Z,49.20
2018-06-24T09:32:47.947Z,46.80
2018-06-24T09:35:24.366Z,46.90
2018-06-24T09:37:59.547Z,49.40
2018-06-24T09:40:33.777Z,46.20
2018-06-24T09:43:06.446Z,47.10
2018-06-24T09:45:47.626Z,47.70
2018-06-24T09:48:26.081Z,47.90
2018-06-24T09:50:58.027Z,49.40
2018-06-24T09:53:37.147Z,50.20
2018-06-24T09:56:15.851Z,48.80
2018-06-24T09:58:53.779Z,49.50
2018-06-24T10:01:30.707Z,51.00
2018-06-24T10:04:07.710Z,51.90
2018-06-24T10:06:45.250Z,51.00
2018-06-24T10:09:25.904Z,51.00
2018-06-24T10:12:03.095Z,51.30
2018-06-24T10:14:43.451Z,52.20
2018-06-24T10:17:15.641Z,52.20
2018-06-24T10:19:48.671Z,51.40
2018-06-24T10:22:25.021Z,50.90
2018-06-24T10:25:04.814Z,50.60
2018-06-24T10:27:41.561Z,50.50
2018-06-24T10:30:19.752Z,49.70
2018-06-24T10:32:58.667Z,48.70
2018-06-24T10:35:38.910Z,48.90
2018-06-24T10:38:19.722Z,48.70
2018-06-24T10:40:56.972Z,48.30
2018-06-24T10:43:35.462Z,47.40
2018-06-24T10:46:15.146Z,49.10
2018-06-24T10:48:52.485Z,47.50
2018-06-24T10:51:30.401Z,46.30
2018-06-24T10:54:08.837Z,45.30
2018-06-24T10:56:45.273Z,44.10
2018-06-24T10:59:22.143Z,44.70
2018-06-24T11:02:00.067Z,45.80
2018-06-24T11:04:40.153Z,44.10
2018-06-24T11:07:19.953Z,42.50
2018-06-24T11:10:00.296Z,40.70
2018-06-24T11:12:32.232Z,37.90
2018-06-24T11:15:17.138Z,37.80
2018-06-24T11:17:56.133Z,34.80
2018-06-24T11:20:36.847Z,32.80
2018-06-24T11:23:09.477Z,34.70
2018-06-24T11:25:46.830Z,32.80
2018-06-24T11:28:27.176Z,34.20
2018-06-24T11:33:43.039Z,30.40
2018-06-24T11:36:21.367Z,32.20
2018-06-24T11:39:01.202Z,33.20
2018-06-24T11:41:40.890Z,31.40
2018-06-24T11:44:20.727Z,32.70
2018-06-24T11:49:27.718Z,33.00
2018-06-24T11:52:02.357Z,32.80
2018-06-24T11:54:42.812Z,32.40
2018-06-24T11:57:23.367Z,33.90
2018-06-24T12:00:03.537Z,35.40
2018-06-24T12:02:43.477Z,37.50
2018-06-24T12:05:23.854Z,37.40
2018-06-24T12:08:05.449Z,38.30
2018-06-24T12:10:46.113Z,38.20
2018-06-24T12:13:23.084Z,38.50
2018-06-24T12:16:03.312Z,38.60
2018-06-24T12:18:41.740Z,35.40
2018-06-24T12:21:20.905Z,37.20
2018-06-24T12:23:57.500Z,36.40
2018-06-24T12:26:33.477Z,36.50
2018-06-24T12:29:05.290Z,37.00
2018-06-24T12:31:46.602Z,38.70
2018-06-24T12:34:20.188Z,39.50
2018-06-24T12:37:00.239Z,38.10
2018-06-24T12:39:31.988Z,36.20
2018-06-24T12:42:02.720Z,37.30
2018-06-24T12:44:33.079Z,36.90
2018-06-24T12:47:06.111Z,38.90
2018-06-24T12:49:37.868Z,36.60
2018-06-24T12:52:09.108Z,37.60
2018-06-24T12:54:41.099Z,38.40
2018-06-24T12:57:12.119Z,37.40
2018-06-24T12:59:45.515Z,37.10
2018-06-24T13:02:17.750Z,37.70
2018-06-24T13:04:49.409Z,37.60
2018-06-24T13:07:20.431Z,37.00
2018-06-24T13:09:54.940Z,36.00
2018-06-24T13:12:26.992Z,37.70
2018-06-24T13:14:58.818Z,37.30
2018-06-24T13:17:30.671Z,37.60
2018-06-24T13:20:01.449Z,39.90
2018-06-24T13:22:31.719Z,37.30
2018-06-24T13:25:04.273Z,36.00
2018-06-24T13:27:36.020Z,39.00
2018-06-24T13:30:06.870Z,37.60
2018-06-24T13:32:38.685Z,36.40
2018-06-24T13:35:12.157Z,36.60
2018-06-24T13:37:42.457Z,35.90
2018-06-24T13:40:13.141Z,37.00
2018-06-24T13:42:43.169Z,36.40
2018-06-24T13:45:22.019Z,36.00
2018-06-24T13:47:53.239Z,36.60
2018-06-24T13:50:24.730Z,36.30
2018-06-24T13:53:03.573Z,35.80
2018-06-24T13:55:35.856Z,37.60
2018-06-24T13:58:06.489Z,36.00
2018-06-24T14:00:38.376Z,37.90
2018-06-24T14:03:17.555Z,37.20
2018-06-24T14:05:56.960Z,36.70
2018-06-24T14:08:30.589Z,38.90
2018-06-24T14:11:02.035Z,38.10
2018-06-24T14:13:40.812Z,37.20
2018-06-24T14:16:20.420Z,36.90
2018-06-24T14:18:51.968Z,37.50
2018-06-24T14:21:23.590Z,37.40
2018-06-24T14:23:56.751Z,38.20
2018-06-24T14:26:28.980Z,37.40
2018-06-24T14:29:00.322Z,39.30
2018-06-24T14:31:32.748Z,38.90
2018-06-24T14:34:04.507Z,38.90
2018-06-24T14:36:36.885Z,38.20
2018-06-24T14:39:16.015Z,37.70
2018-06-24T14:41:55.173Z,38.70
2018-06-24T14:44:35.126Z,39.20
2018-06-24T14:47:16.681Z,39.50
2018-06-24T14:49:48.601Z,39.10
2018-06-24T14:52:22.121Z,40.20
2018-06-24T14:55:04.571Z,39.60
2018-06-24T14:57:35.818Z,39.40
2018-06-24T15:00:06.951Z,40.20
2018-06-24T15:02:41.760Z,41.10
2018-06-24T15:05:45.482Z,41.00
2018-06-24T15:08:15.963Z,40.20
2018-06-24T15:10:46.300Z,40.30
2018-06-24T15:13:21.461Z,40.80
2018-06-24T15:15:52.721Z,41.20
2018-06-24T15:18:24.687Z,41.50
2018-06-24T15:20:55.072Z,41.40
2018-06-24T15:23:25.911Z,41.20
2018-06-24T15:25:59.342Z,40.20
2018-06-24T15:28:30.592Z,39.60
2018-06-24T15:31:01.702Z,39.70
2018-06-24T15:33:36.052Z,40.00
2018-06-24T15:36:06.571Z,40.40
2018-06-24T15:38:38.251Z,40.50
2018-06-24T15:41:09.872Z,40.30
2018-06-24T15:43:41.772Z,40.80
2018-06-24T15:46:13.212Z,41.00
2018-06-24T15:48:46.141Z,42.10
2018-06-24T15:51:19.664Z,42.60
2018-06-24T15:53:52.075Z,42.10
2018-06-24T15:56:23.512Z,44.70
2018-06-24T15:58:55.131Z,43.20
2018-06-24T16:01:25.342Z,43.80
2018-06-24T16:03:57.095Z,42.80
2018-06-24T16:06:28.412Z,43.30
2018-06-24T16:09:01.493Z,43.30
2018-06-24T16:14:13.553Z,42.50
2018-06-24T16:16:45.244Z,41.70
2018-06-24T16:19:17.802Z,41.70
2018-06-24T16:21:49.382Z,42.20
2018-06-24T16:24:22.253Z,41.90
2018-06-24T16:26:54.142Z,41.40
2018-06-24T16:29:25.822Z,42.80
2018-06-24T16:31:57.040Z,42.50
2018-06-24T16:34:41.497Z,42.00
2018-06-24T16:37:12.592Z,42.50
2018-06-24T16:39:44.492Z,41.10
2018-06-24T16:42:34.552Z,41.60
2018-06-24T16:45:20.762Z,42.00
2018-06-24T16:47:52.072Z,41.40
2018-06-24T16:50:23.731Z,42.60
2018-06-24T16:53:03.849Z,42.90
2018-06-24T16:55:34.930Z,42.60
2018-06-24T16:58:06.105Z,40.50
2018-06-24T17:00:44.270Z,41.50
2018-06-24T17:06:05.092Z,43.20
2018-06-24T17:08:44.855Z,42.90
2018-06-24T17:11:25.321Z,44.10
2018-06-24T17:13:56.591Z,43.80
2018-06-24T17:16:28.006Z,44.60
2018-06-24T17:19:00.200Z,44.00
2018-06-24T17:21:31.051Z,44.70
2018-06-24T17:24:10.018Z,43.20
2018-06-24T17:26:40.079Z,43.80
2018-06-24T17:29:11.681Z,43.70
2018-06-24T17:31:42.751Z,43.80
2018-06-24T17:34:16.374Z,43.20
2018-06-24T17:36:59.903Z,43.30
2018-06-24T17:39:32.134Z,44.30
2018-06-24T17:42:04.751Z,43.90
2018-06-24T17:44:43.255Z,44.30
2018-06-24T17:47:13.672Z,43.50
2018-06-24T17:49:43.922Z,44.10
2018-06-24T17:52:16.130Z,44.50
2018-06-24T17:55:13.763Z,45.50
2018-06-24T17:57:44.611Z,44.70
2018-06-24T18:00:15.174Z,44.70
2018-06-24T18:02:46.584Z,44.50
2018-06-24T18:05:38.343Z,44.10
2018-06-24T18:08:09.942Z,43.90
2018-06-24T18:10:42.091Z,43.80
2018-06-24T18:13:12.701Z,44.90
2018-06-24T18:16:05.300Z,44.10
2018-06-24T18:18:44.432Z,44.70
2018-06-24T18:21:14.892Z,44.50
2018-06-24T18:23:49.963Z,45.40
2018-06-24T18:26:24.186Z,45.90
2018-06-24T18:28:54.863Z,45.60
2018-06-24T18:31:24.952Z,45.90
2018-06-24T18:33:58.215Z,45.40
2018-06-24T18:39:04.253Z,46.00
2018-06-24T18:41:35.848Z,45.60
2018-06-24T18:44:14.143Z,45.80
2018-06-24T18:46:44.380Z,46.10
2018-06-24T18:49:14.816Z,46.40
2018-06-24T18:51:46.303Z,46.50
2018-06-24T18:54:17.823Z,47.50
2018-06-24T18:56:48.168Z,48.00
2018-06-24T18:59:18.552Z,48.30
2018-06-24T19:01:48.712Z,48.00
2018-06-24T19:04:23.702Z,48.30
2018-06-24T19:06:54.252Z,48.30
2018-06-24T19:09:24.782Z,49.10
2018-06-24T19:11:55.781Z,49.80
2018-06-24T19:14:27.446Z,49.60
2018-06-24T19:17:29.798Z,50.00
2018-06-24T19:20:08.323Z,51.40
2018-06-24T19:22:39.501Z,52.20
2018-06-24T19:25:16.312Z,52.30
2018-06-24T19:27:50.602Z,52.50
2018-06-24T19:30:21.432Z,52.90
2018-06-24T19:32:53.032Z,52.50
2018-06-24T19:35:25.612Z,53.00
2018-06-24T19:37:57.445Z,53.80
2018-06-24T19:40:30.041Z,54.10
2018-06-24T19:43:11.396Z,54.20
2018-06-24T19:45:44.568Z,54.30
2018-06-24T19:48:23.998Z,54.50
2018-06-24T19:50:54.112Z,55.30
2018-06-24T19:53:26.141Z,55.70
2018-06-24T19:55:59.151Z,56.30
2018-06-24T19:58:29.420Z,57.10
2018-06-24T20:01:00.232Z,57.40
2018-06-24T20:03:30.771Z,57.10
2018-06-24T20:06:03.651Z,57.10
2018-06-24T20:08:33.903Z,57.30
2018-06-24T20:11:04.391Z,57.70
2018-06-24T20:16:35.519Z,58.20
2018-06-24T20:19:06.373Z,58.50
2018-06-24T20:21:37.783Z,58.40
2018-06-24T20:24:21.473Z,58.30
2018-06-24T20:26:52.123Z,59.40
2018-06-24T20:32:11.046Z,59.80
2018-06-24T20:34:53.982Z,59.50
2018-06-24T20:37:25.131Z,60.00
2018-06-24T20:39:55.762Z,60.30
2018-06-24T20:42:26.473Z,60.60
2018-06-24T20:44:58.182Z,60.70
2018-06-24T20:47:30.392Z,61.00
2018-06-24T20:50:02.271Z,61.10
2018-06-24T20:52:34.755Z,62.40
2018-06-24T20:55:07.563Z,62.60
2018-06-24T20:57:39.190Z,63.00
2018-06-24T21:00:11.383Z,63.00
2018-06-24T21:02:50.458Z,63.20
2018-06-24T21:05:22.989Z,63.30
2018-06-24T21:07:55.738Z,62.70
2018-06-24T21:10:35.944Z,62.50
2018-06-24T21:13:07.978Z,62.30
2018-06-24T21:15:38.324Z,62.50
2018-06-24T21:18:09.905Z,63.00
2018-06-24T21:20:42.274Z,62.60
2018-06-24T21:23:21.097Z,63.00
2018-06-24T21:25:52.488Z,64.00
2018-06-24T21:28:22.698Z,64.60
2018-06-24T21:30:54.318Z,65.10
2018-06-24T21:33:26.871Z,64.90
2018-06-24T21:35:57.899Z,65.10
2018-06-24T21:38:28.438Z,65.20
2018-06-24T21:40:59.888Z,65.40
2018-06-24T21:43:30.562Z,65.10
2018-06-24T21:46:01.058Z,65.40
2018-06-24T21:48:31.638Z,66.10
2018-06-24T21:51:02.769Z,66.70
2018-06-24T21:53:34.628Z,67.50
2018-06-24T21:56:04.998Z,68.40
2018-06-24T21:58:36.281Z,69.20
2018-06-24T22:01:07.949Z,70.00
2018-06-24T22:03:38.059Z,70.20
2018-06-24T22:06:09.449Z,70.60
2018-06-24T22:08:41.159Z,71.00
2018-06-24T22:11:12.659Z,71.50
2018-06-24T22:13:44.158Z,73.10
2018-06-24T22:16:14.670Z,73.70
2018-06-24T22:18:46.379Z,75.00
2018-06-24T22:21:18.099Z,75.00
2018-06-24T22:23:49.918Z,75.10
2018-06-24T22:26:21.497Z,75.50
2018-06-24T22:28:53.521Z,74.70
2018-06-24T22:31:25.049Z,75.70
2018-06-24T22:33:55.758Z,75.60
2018-06-24T22:38:56.309Z,74.20
2018-06-24T22:41:26.519Z,75.00
2018-06-24T22:43:57.269Z,75.30
2018-06-24T22:48:58.469Z,75.10
2018-06-24T22:51:28.728Z,75.30
2018-06-24T22:54:00.141Z,75.40
2018-06-24T22:56:31.438Z,76.80
2018-06-24T22:59:12.139Z,76.80
2018-06-24T23:04:16.459Z,78.30
2018-06-24T23:06:47.776Z,77.80
2018-06-24T23:09:22.889Z,78.50
2018-06-24T23:11:53.719Z,78.80
2018-06-24T23:14:25.304Z,79.90
2018-06-24T23:16:56.839Z,79.70
2018-06-24T23:19:36.924Z,80.20
2018-06-24T23:22:12.554Z,80.70
2018-06-24T23:24:52.390Z,81.30
2018-06-24T23:27:22.374Z,80.50
2018-06-24T23:32:32.089Z,81.40
2018-06-24T23:35:11.365Z,81.50
2018-06-24T23:37:43.623Z,81.70
2018-06-24T23:40:14.193Z,81.40
2018-06-24T23:42:45.480Z,82.00
2018-06-24T23:45:24.837Z,81.70
2018-06-24T23:47:55.061Z,82.10
2018-06-24T23:50:27.012Z,82.80
2018-06-24T23:53:07.687Z,82.70
2018-06-24T23:55:47.063Z,83.40
2018-06-24T23:58:17.065Z,83.90
